createdAt,value
2022-08-22T00:01:25.489Z,1.35
2022-08-22T00:03:07.477Z,1.40
2022-08-22T00:04:25.310Z,0.90
2022-08-22T00:07:20.818Z,1.10
2022-08-22T00:10:48.212Z,1.08
2022-08-22T00:13:19.813Z,1.15
2022-08-22T00:16:19.307Z,1.10
2022-08-22T00:18:51.994Z,0.70
2022-08-22T00:21:27.667Z,0.80
2022-08-22T00:24:11.303Z,0.90
2022-08-22T00:26:55.796Z,0.90
2022-08-22T00:29:26.558Z,1.00
2022-08-22T00:32:10.311Z,0.77
2022-08-22T00:34:48.848Z,1.20
2022-08-22T00:37:42.608Z,1.20
2022-08-22T00:40:46.794Z,0.85
2022-08-22T00:43:19.947Z,0.98
2022-08-22T00:46:04.507Z,1.40
2022-08-22T00:48:49.849Z,0.95
2022-08-22T00:51:27.541Z,0.70
2022-08-22T00:54:06.840Z,0.77
2022-08-22T00:57:15.637Z,0.75
2022-08-22T00:59:48.175Z,0.85
2022-08-22T01:02:36.550Z,0.90
2022-08-22T01:05:17.136Z,1.10
2022-08-22T01:08:09.462Z,0.85
2022-08-22T01:10:45.141Z,0.90
2022-08-22T01:13:30.907Z,1.10
2022-08-22T01:16:16.831Z,0.75
2022-08-22T01:18:56.584Z,1.38
2022-08-22T01:22:01.146Z,1.10
2022-08-22T01:25:08.141Z,1.20
2022-08-22T01:28:03.165Z,1.00
2022-08-22T01:30:51.476Z,1.17
2022-08-22T01:33:42.425Z,1.05
2022-08-22T01:39:22.278Z,1.00
2022-08-22T01:41:58.124Z,1.20
2022-08-22T01:44:24.870Z,1.30
2022-08-22T01:47:01.348Z,1.00
2022-08-22T01:49:34.038Z,1.40
2022-08-22T01:52:12.792Z,0.90
2022-08-22T01:55:02.476Z,1.30
2022-08-22T01:57:29.070Z,1.20
2022-08-22T01:59:58.281Z,1.08
2022-08-22T02:02:35.044Z,1.25
2022-08-22T02:05:20.540Z,1.40
2022-08-22T02:07:58.597Z,1.05
2022-08-22T02:11:03.105Z,1.10
2022-08-22T02:13:54.205Z,1.98
2022-08-22T02:16:40.774Z,1.20
2022-08-22T02:19:16.618Z,1.50
2022-08-22T02:21:43.085Z,1.50
2022-08-22T02:24:33.917Z,1.20
2022-08-22T02:27:09.129Z,1.30
2022-08-22T02:29:43.513Z,1.55
2022-08-22T02:32:25.158Z,1.33
2022-08-22T02:35:17.421Z,1.23
2022-08-22T02:38:09.487Z,1.00
2022-08-22T02:40:44.408Z,0.70
2022-08-22T02:43:34.931Z,1.20
2022-08-22T02:46:25.543Z,1.05
2022-08-22T02:49:12.154Z,1.00
2022-08-22T02:51:53.830Z,1.30
2022-08-22T02:54:20.264Z,1.10
2022-08-22T02:56:59.141Z,1.20
2022-08-22T02:59:38.869Z,1.05
2022-08-22T03:02:27.708Z,1.20
2022-08-22T03:05:00.980Z,1.27
2022-08-22T03:07:41.254Z,1.60
2022-08-22T03:10:18.112Z,1.40
2022-08-22T03:13:12.285Z,1.30
2022-08-22T03:15:55.136Z,1.33
2022-08-22T03:18:35.114Z,1.30
2022-08-22T03:21:26.375Z,1.20
2022-08-22T03:23:58.642Z,1.08
2022-08-22T03:26:33.720Z,1.98
2022-08-22T03:29:04.819Z,1.30
2022-08-22T03:31:32.594Z,1.55
2022-08-22T03:34:23.301Z,1.10
2022-08-22T03:37:05.332Z,1.20
2022-08-22T03:39:52.817Z,0.98
2022-08-22T03:42:24.495Z,1.20
2022-08-22T03:45:18.457Z,1.13
2022-08-22T03:48:13.018Z,1.23
2022-08-22T03:51:04.896Z,1.42
2022-08-22T03:53:43.736Z,1.20
2022-08-22T03:56:13.713Z,1.20
2022-08-22T03:58:59.016Z,1.23
2022-08-22T04:01:51.923Z,1.02
2022-08-22T04:04:52.910Z,1.00
2022-08-22T04:07:40.296Z,1.30
2022-08-22T04:10:46.302Z,1.17
2022-08-22T04:13:35.957Z,0.98
2022-08-22T04:16:08.523Z,1.10
2022-08-22T04:18:37.289Z,1.15
2022-08-22T04:21:13.281Z,1.30
2022-08-22T04:24:04.892Z,1.10
2022-08-22T04:26:34.368Z,1.10
2022-08-22T04:29:28.958Z,1.00
2022-08-22T04:32:07.154Z,1.05
2022-08-22T04:34:43.392Z,1.27
2022-08-22T04:37:19.817Z,0.90
2022-08-22T04:40:12.177Z,1.35
2022-08-22T04:42:43.430Z,1.30
2022-08-22T04:45:36.459Z,0.90
2022-08-22T04:48:10.522Z,1.42
2022-08-22T04:50:53.190Z,0.68
2022-08-22T04:53:57.404Z,1.10
2022-08-22T04:56:32.994Z,0.90
2022-08-22T04:59:12.734Z,1.20
2022-08-22T05:01:55.213Z,0.95
2022-08-22T05:04:26.079Z,1.40
2022-08-22T05:06:56.723Z,1.17
2022-08-22T05:09:32.567Z,1.20
2022-08-22T05:12:05.720Z,1.33
2022-08-22T05:14:44.923Z,1.02
2022-08-22T05:17:17.014Z,0.90
2022-08-22T05:19:50.628Z,1.00
2022-08-22T05:22:21.709Z,0.90
2022-08-22T05:24:50.188Z,1.02
2022-08-22T05:27:21.169Z,1.08
2022-08-22T05:29:51.293Z,0.80
2022-08-22T05:32:30.282Z,0.90
2022-08-22T05:34:59.824Z,0.82
2022-08-22T05:37:33.391Z,0.68
2022-08-22T05:40:00.926Z,1.10
2022-08-22T05:42:37.517Z,0.85
2022-08-22T05:45:11.448Z,0.88
2022-08-22T05:47:44.977Z,0.73
2022-08-22T05:50:23.803Z,0.98
2022-08-22T05:53:28.607Z,0.65
2022-08-22T05:56:02.830Z,0.90
2022-08-22T05:58:50.689Z,0.60
2022-08-22T06:01:23.249Z,0.60
2022-08-22T06:04:11.815Z,0.80
2022-08-22T06:06:41.056Z,0.82
2022-08-22T06:09:19.898Z,0.80
2022-08-22T06:11:56.219Z,1.00
2022-08-22T06:15:12.289Z,1.13
2022-08-22T06:17:55.586Z,0.98
2022-08-22T06:20:33.609Z,0.73
2022-08-22T06:23:02.367Z,0.70
2022-08-22T06:25:34.538Z,0.65
2022-08-22T06:30:28.716Z,0.90
2022-08-22T06:33:00.980Z,0.80
2022-08-22T06:35:54.005Z,0.73
2022-08-22T06:38:21.504Z,0.88
2022-08-22T06:40:52.885Z,0.65
2022-08-22T06:43:23.103Z,0.60
2022-08-22T06:45:50.261Z,1.00
2022-08-22T06:48:19.401Z,0.60
2022-08-22T06:50:49.096Z,0.82
2022-08-22T06:53:21.915Z,0.70
2022-08-22T06:55:51.362Z,0.70
2022-08-22T06:58:22.399Z,0.80
2022-08-22T07:01:05.754Z,0.80
2022-08-22T07:03:45.659Z,1.45
2022-08-22T07:06:14.971Z,0.60
2022-08-22T07:08:42.208Z,1.05
2022-08-22T07:11:23.542Z,0.80
2022-08-22T07:14:00.879Z,0.93
2022-08-22T07:16:31.359Z,0.80
2022-08-22T07:18:58.734Z,0.65
2022-08-22T07:21:29.224Z,0.82
2022-08-22T07:23:58.485Z,0.68
2022-08-22T07:26:31.525Z,0.77
2022-08-22T07:29:05.063Z,0.80
2022-08-22T07:31:44.815Z,0.90
2022-08-22T07:34:31.134Z,0.95
2022-08-22T07:37:30.695Z,0.90
2022-08-22T07:40:18.608Z,1.02
2022-08-22T07:43:20.010Z,0.70
2022-08-22T07:45:52.955Z,0.70
2022-08-22T07:48:29.640Z,1.38
2022-08-22T07:51:15.479Z,0.73
2022-08-22T07:53:44.551Z,0.70
2022-08-22T07:56:33.498Z,0.90
2022-08-22T07:59:12.793Z,0.85
2022-08-22T08:01:45.206Z,0.85
2022-08-22T08:04:16.703Z,0.93
2022-08-22T08:06:47.592Z,0.95
2022-08-22T08:09:17.367Z,0.88
2022-08-22T08:11:44.919Z,0.98
2022-08-22T08:14:13.975Z,0.70
2022-08-22T08:16:44.064Z,0.90
2022-08-22T08:19:12.096Z,0.60
2022-08-22T08:21:38.640Z,0.70
2022-08-22T08:24:08.037Z,0.47
2022-08-22T08:26:39.227Z,0.77
2022-08-22T08:29:08.231Z,0.60
2022-08-22T08:31:43.309Z,0.57
2022-08-22T08:34:19.851Z,0.70
2022-08-22T08:36:59.834Z,0.75
2022-08-22T08:39:50.526Z,0.55
2022-08-22T08:42:26.102Z,0.60
2022-08-22T08:45:23.799Z,0.75
2022-08-22T08:48:15.034Z,0.63
2022-08-22T08:51:04.109Z,0.63
2022-08-22T08:54:09.213Z,0.70
2022-08-22T08:56:47.124Z,0.70
2022-08-22T08:59:44.151Z,0.60
2022-08-22T09:02:42.483Z,0.60
2022-08-22T09:05:19.261Z,0.40
2022-08-22T09:08:05.457Z,0.68
2022-08-22T09:10:59.337Z,0.60
2022-08-22T09:13:47.535Z,0.70
2022-08-22T09:16:31.537Z,0.75
2022-08-22T09:19:20.255Z,0.70
2022-08-22T09:21:58.559Z,0.70
2022-08-22T09:26:57.367Z,0.70
2022-08-22T09:29:54.724Z,0.80
2022-08-22T09:32:53.271Z,0.82
2022-08-22T09:35:43.077Z,0.50
2022-08-22T09:38:32.126Z,0.70
2022-08-22T09:41:09.117Z,0.73
2022-08-22T09:43:48.808Z,0.90
2022-08-22T09:46:31.502Z,0.88
2022-08-22T09:49:08.449Z,0.60
2022-08-22T09:52:15.208Z,0.80
2022-08-22T09:54:54.910Z,0.93
2022-08-22T09:57:32.161Z,0.80
2022-08-22T10:00:22.140Z,0.80
2022-08-22T10:02:58.173Z,1.33
2022-08-22T10:05:44.405Z,0.77
2022-08-22T10:08:20.014Z,0.80
2022-08-22T10:11:11.716Z,0.80
2022-08-22T10:13:57.836Z,0.77
2022-08-22T10:16:49.376Z,0.70
2022-08-22T10:19:45.784Z,0.70
2022-08-22T10:22:39.987Z,0.80
2022-08-22T10:25:18.722Z,0.80
2022-08-22T10:27:55.977Z,0.70
2022-08-22T10:30:27.925Z,0.70
2022-08-22T10:33:08.846Z,1.15
2022-08-22T10:35:50.518Z,0.90
2022-08-22T10:38:26.872Z,0.75
2022-08-22T10:41:09.455Z,0.80
2022-08-22T10:43:56.505Z,0.82
2022-08-22T10:46:42.180Z,0.82
2022-08-22T10:49:28.299Z,0.88
2022-08-22T10:52:13.646Z,0.65
2022-08-22T10:55:09.812Z,0.70
2022-08-22T10:58:01.031Z,0.60
2022-08-22T11:00:51.610Z,0.80
2022-08-22T11:03:35.264Z,0.80
2022-08-22T11:06:10.498Z,0.75
2022-08-22T11:08:51.319Z,0.70
2022-08-22T11:11:38.336Z,0.70
2022-08-22T11:14:19.311Z,0.80
2022-08-22T11:17:00.909Z,0.70
2022-08-22T11:19:58.604Z,0.63
2022-08-22T11:22:41.819Z,0.70
2022-08-22T11:25:41.356Z,0.80
2022-08-22T11:28:30.143Z,0.85
2022-08-22T11:31:07.170Z,0.90
2022-08-22T11:33:47.183Z,1.15
2022-08-22T11:36:27.270Z,0.77
2022-08-22T11:39:07.945Z,0.90
2022-08-22T11:41:41.592Z,0.85
2022-08-22T11:46:45.633Z,0.90
2022-08-22T11:49:32.827Z,0.70
2022-08-22T11:52:23.885Z,0.60
2022-08-22T11:55:00.043Z,0.70
2022-08-22T11:57:36.378Z,0.70
2022-08-22T12:00:13.029Z,0.80
2022-08-22T12:02:42.913Z,0.63
2022-08-22T12:05:24.685Z,0.70
2022-08-22T12:07:59.257Z,0.73
2022-08-22T12:10:30.357Z,0.75
2022-08-22T12:13:09.942Z,0.90
2022-08-22T12:15:53.966Z,0.70
2022-08-22T12:18:30.009Z,0.80
2022-08-22T12:21:17.896Z,0.80
2022-08-22T12:24:21.645Z,0.70
2022-08-22T12:27:34.104Z,0.85
2022-08-22T12:30:13.788Z,0.80
2022-08-22T12:33:13.864Z,0.80
2022-08-22T12:35:59.595Z,0.70
2022-08-22T12:38:38.267Z,0.75
2022-08-22T12:42:09.377Z,0.63
2022-08-22T12:45:05.977Z,0.90
2022-08-22T12:48:02.045Z,0.88
2022-08-22T12:50:53.432Z,0.70
2022-08-22T12:53:28.576Z,0.88
2022-08-22T12:56:14.445Z,0.70
2022-08-22T12:59:01.849Z,0.70
2022-08-22T13:01:41.293Z,0.80
2022-08-22T13:04:32.837Z,0.70
2022-08-22T13:07:08.221Z,0.60
2022-08-22T13:09:40.586Z,1.13
2022-08-22T13:12:44.130Z,0.80
2022-08-22T13:15:36.561Z,0.52
2022-08-22T13:18:30.024Z,0.60
2022-08-22T13:21:03.389Z,0.70
2022-08-22T13:23:39.667Z,0.77
2022-08-22T13:26:35.279Z,0.70
2022-08-22T13:32:01.834Z,0.70
2022-08-22T13:34:40.539Z,0.80
2022-08-22T13:37:33.481Z,0.90
2022-08-22T13:40:13.430Z,0.75
2022-08-22T13:42:47.780Z,0.85
2022-08-22T13:45:22.931Z,0.73
2022-08-22T13:47:59.530Z,0.70
2022-08-22T13:50:37.487Z,0.85
2022-08-22T13:53:36.134Z,0.60
2022-08-22T13:56:15.427Z,0.80
2022-08-22T13:58:54.299Z,0.60
2022-08-22T14:01:40.249Z,0.60
2022-08-22T14:04:34.747Z,0.80
2022-08-22T14:07:08.759Z,0.60
2022-08-22T14:09:57.511Z,0.60
2022-08-22T14:12:50.066Z,0.80
2022-08-22T14:15:45.465Z,0.90
2022-08-22T14:18:18.476Z,0.70
2022-08-22T14:20:46.332Z,0.70
2022-08-22T14:23:23.978Z,0.82
2022-08-22T14:25:55.961Z,0.70
2022-08-22T14:28:33.400Z,0.90
2022-08-22T14:31:07.386Z,0.70
2022-08-22T14:33:40.871Z,0.50
2022-08-22T14:36:22.897Z,0.82
2022-08-22T14:39:02.216Z,0.70
2022-08-22T14:41:59.434Z,0.80
2022-08-22T14:44:42.822Z,0.80
2022-08-22T14:47:54.289Z,0.70
2022-08-22T14:50:13.216Z,0.70
2022-08-22T14:52:45.839Z,0.77
2022-08-22T14:55:24.348Z,0.60
2022-08-22T14:58:16.953Z,0.70
2022-08-22T15:00:54.165Z,0.70
2022-08-22T15:03:30.250Z,0.70
2022-08-22T15:06:08.653Z,0.90
2022-08-22T15:08:57.015Z,1.15
2022-08-22T15:11:31.906Z,0.52
2022-08-22T15:14:03.376Z,0.70
2022-08-22T15:16:37.432Z,0.65
2022-08-22T15:19:35.415Z,0.60
2022-08-22T15:22:19.737Z,0.73
2022-08-22T15:24:47.342Z,0.57
2022-08-22T15:27:19.229Z,0.60
2022-08-22T15:29:55.560Z,0.70
2022-08-22T15:32:26.721Z,0.60
2022-08-22T15:34:54.308Z,0.93
2022-08-22T15:37:20.922Z,0.75
2022-08-22T15:40:08.086Z,0.60
2022-08-22T15:42:45.060Z,0.70
2022-08-22T15:45:34.881Z,0.60
2022-08-22T15:48:11.374Z,0.60
2022-08-22T15:50:59.213Z,0.70
2022-08-22T15:53:35.913Z,0.75
2022-08-22T15:56:15.789Z,0.82
2022-08-22T15:59:12.796Z,0.60
2022-08-22T16:01:52.534Z,0.70
2022-08-22T16:04:36.772Z,0.70
2022-08-22T16:07:21.058Z,0.75
2022-08-22T16:09:55.512Z,0.60
2022-08-22T16:12:44.462Z,0.90
2022-08-22T16:15:56.728Z,0.70
2022-08-22T16:18:42.674Z,0.65
2022-08-22T16:21:10.223Z,0.70
2022-08-22T16:23:53.673Z,0.70
2022-08-22T16:26:25.026Z,0.50
2022-08-22T16:28:58.811Z,0.50
2022-08-22T16:31:32.675Z,0.70
2022-08-22T16:34:21.378Z,0.90
2022-08-22T16:37:03.137Z,0.70
2022-08-22T16:39:40.343Z,0.80
2022-08-22T16:42:12.754Z,0.70
2022-08-22T16:44:49.286Z,0.70
2022-08-22T16:47:22.828Z,0.70
2022-08-22T16:49:49.257Z,0.70
2022-08-22T16:52:25.099Z,1.08
2022-08-22T16:54:55.819Z,0.60
2022-08-22T16:57:27.521Z,0.90
2022-08-22T17:02:52.156Z,0.70
2022-08-22T17:05:32.533Z,0.80
2022-08-22T17:08:03.158Z,0.70
2022-08-22T17:10:46.989Z,0.70
2022-08-22T17:13:34.667Z,0.50
2022-08-22T17:16:12.489Z,0.70
2022-08-22T17:18:53.418Z,0.70
2022-08-22T17:21:51.886Z,0.77
2022-08-22T17:24:33.613Z,0.80
2022-08-22T17:27:08.412Z,0.70
2022-08-22T17:29:53.736Z,0.80
2022-08-22T17:32:34.902Z,0.70
2022-08-22T17:35:39.099Z,0.70
2022-08-22T17:38:19.722Z,0.80
2022-08-22T17:41:17.000Z,0.93
2022-08-22T17:43:53.104Z,1.10
2022-08-22T17:46:34.311Z,1.00
2022-08-22T17:49:35.581Z,1.23
2022-08-22T17:52:20.638Z,1.90
2022-08-22T17:54:58.524Z,2.65
2022-08-22T17:57:30.935Z,3.33
2022-08-22T18:00:12.743Z,3.30
2022-08-22T18:02:51.582Z,2.47
2022-08-22T18:05:19.477Z,3.35
2022-08-22T18:11:16.594Z,2.80
2022-08-22T18:13:57.798Z,2.60
2022-08-22T18:16:47.082Z,3.33
2022-08-22T18:19:19.711Z,3.00
2022-08-22T18:22:11.053Z,3.53
2022-08-22T18:24:54.461Z,2.25
2022-08-22T18:27:51.784Z,2.67
2022-08-22T18:30:21.379Z,1.90
2022-08-22T18:32:55.941Z,1.75
2022-08-22T18:35:41.208Z,1.63
2022-08-22T18:38:20.103Z,1.50
2022-08-22T18:40:51.730Z,1.30
2022-08-22T18:43:25.852Z,1.10
2022-08-22T18:45:52.258Z,0.90
2022-08-22T18:48:19.708Z,1.10
2022-08-22T18:50:47.532Z,1.10
2022-08-22T18:53:40.285Z,1.45
2022-08-22T18:56:13.539Z,1.70
2022-08-22T18:59:05.327Z,2.03
2022-08-22T19:02:03.717Z,1.08
2022-08-22T19:04:59.615Z,1.10
2022-08-22T19:07:51.049Z,1.63
2022-08-22T19:10:23.350Z,1.10
2022-08-22T19:13:11.748Z,1.20
2022-08-22T19:15:44.217Z,1.20
2022-08-22T19:18:26.441Z,1.40
2022-08-22T19:21:33.421Z,1.13
2022-08-22T19:24:00.339Z,1.20
2022-08-22T19:26:41.866Z,0.93
2022-08-22T19:29:21.960Z,0.80
2022-08-22T19:32:05.891Z,1.20
2022-08-22T19:34:37.035Z,0.93
2022-08-22T19:37:34.072Z,1.30
2022-08-22T19:40:02.108Z,1.50
2022-08-22T19:42:42.417Z,0.93
2022-08-22T19:45:21.871Z,1.20
2022-08-22T19:48:10.496Z,1.30
2022-08-22T19:50:40.358Z,1.60
2022-08-22T19:53:15.697Z,1.17
2022-08-22T19:55:58.385Z,1.33
2022-08-22T19:58:47.447Z,1.20
2022-08-22T20:01:32.601Z,1.40
2022-08-22T20:04:08.015Z,1.58
2022-08-22T20:06:55.651Z,1.10
2022-08-22T20:09:43.671Z,1.27
2022-08-22T20:12:22.336Z,1.20
2022-08-22T20:14:49.854Z,1.20
2022-08-22T20:17:25.534Z,1.10
2022-08-22T20:20:30.581Z,0.85
2022-08-22T20:23:15.974Z,1.40
2022-08-22T20:25:51.798Z,1.08
2022-08-22T20:28:46.881Z,2.05
2022-08-22T20:31:29.070Z,1.17
2022-08-22T20:34:00.949Z,0.90
2022-08-22T20:36:29.331Z,0.70
2022-08-22T20:39:10.908Z,1.33
2022-08-22T20:41:42.160Z,1.20
2022-08-22T20:44:30.292Z,1.50
2022-08-22T20:47:19.413Z,1.42
2022-08-22T20:49:53.449Z,1.20
2022-08-22T20:52:19.872Z,1.48
2022-08-22T20:55:08.802Z,1.00
2022-08-22T20:57:49.175Z,1.00
2022-08-22T21:00:27.422Z,1.23
2022-08-22T21:03:19.807Z,2.00
2022-08-22T21:05:46.360Z,1.13
2022-08-22T21:08:26.760Z,1.00
2022-08-22T21:11:16.624Z,2.00
2022-08-22T21:13:43.160Z,1.50
2022-08-22T21:16:31.896Z,1.75
2022-08-22T21:19:01.820Z,1.30
2022-08-22T21:21:35.613Z,1.50
2022-08-22T21:24:07.105Z,1.30
2022-08-22T21:26:36.768Z,1.27
2022-08-22T21:29:05.300Z,1.02
2022-08-22T21:31:41.817Z,1.00
2022-08-22T21:34:24.304Z,1.23
2022-08-22T21:36:52.976Z,1.45
2022-08-22T21:39:34.303Z,0.90
2022-08-22T21:42:09.852Z,0.90
2022-08-22T21:44:39.690Z,1.00
2022-08-22T21:47:30.495Z,1.27
2022-08-22T21:50:13.701Z,1.23
2022-08-22T21:52:44.330Z,0.90
2022-08-22T21:55:18.322Z,0.90
2022-08-22T21:57:47.331Z,1.10
2022-08-22T22:00:45.246Z,1.00
2022-08-22T22:03:17.171Z,0.90
2022-08-22T22:05:44.231Z,0.73
2022-08-22T22:08:11.339Z,1.30
2022-08-22T22:10:40.773Z,1.45
2022-08-22T22:13:09.855Z,1.13
2022-08-22T22:15:40.971Z,1.23
2022-08-22T22:18:07.514Z,0.95
2022-08-22T22:20:39.083Z,1.75
2022-08-22T22:23:05.687Z,1.30
2022-08-22T22:25:39.766Z,1.40
2022-08-22T22:28:17.743Z,1.67
2022-08-22T22:30:45.872Z,0.90
2022-08-22T22:33:12.430Z,1.20
2022-08-22T22:35:40.311Z,0.90
2022-08-22T22:38:10.348Z,1.08
2022-08-22T22:40:36.928Z,1.58
2022-08-22T22:43:07.255Z,1.50
2022-08-22T22:45:40.160Z,1.60
2022-08-22T22:48:07.745Z,1.40
2022-08-22T22:50:38.001Z,1.13
2022-08-22T22:53:07.757Z,1.52
2022-08-22T22:55:37.692Z,1.30
2022-08-22T22:58:08.260Z,1.20
2022-08-22T23:00:37.092Z,1.30
2022-08-22T23:03:06.423Z,1.20
2022-08-22T23:05:35.020Z,1.25
2022-08-22T23:08:05.344Z,1.15
2022-08-22T23:10:32.018Z,1.00
2022-08-22T23:12:58.829Z,1.58
2022-08-22T23:15:25.653Z,1.13
2022-08-22T23:17:52.195Z,1.10
2022-08-22T23:20:19.015Z,1.00
2022-08-22T23:22:49.127Z,1.00
2022-08-22T23:25:16.012Z,1.45
2022-08-22T23:27:42.861Z,1.42
2022-08-22T23:30:10.572Z,1.30
2022-08-22T23:32:37.736Z,1.10
2022-08-22T23:35:05.107Z,1.00
2022-08-22T23:37:33.359Z,1.15
2022-08-22T23:40:00.157Z,1.27
2022-08-22T23:42:29.052Z,1.40
2022-08-22T23:44:55.574Z,1.00
2022-08-22T23:47:22.026Z,1.00
2022-08-22T23:49:51.118Z,1.38
2022-08-22T23:52:17.765Z,0.80
2022-08-22T23:54:44.305Z,1.10
2022-08-22T23:57:11.811Z,1.65
2022-08-22T23:59:44.616Z,1.00
